< < Back
Terminal Aerodrome Forecast


Current Version              Previous Versions:   1  2  3  4  5  6  7  8  9  

Terminal Aerodrome Forecast

256
FTUS42 KJAX 300100 AAA
TAFSSI
TAF AMD
KSSI 300130Z 3002/3024 13008KT P6SM SKC
     FM300200 16005KT P6SM SCT250
     FM301400 12010KT P6SM SCT035=



Latest METAR

344
SAUS70 KWBC 301600 RRK
MTRSSI
METAR KSSI 301553Z AUTO 07006KT 10SM FEW021 SCT026 30/24 A3016 RMK AO2
SLP212 T03000239


USA.gov is the U.S. government's official web portal to all federal, state and local government web resources and services.